Time;durP1;ratioP1;P1;durP2;ratioP2;P2;SDS_P1;SDS_P2;PMS_P1;PMS_P2;Temp;Humidity;BMP_temperature;BMP_pressure;BME280_temperature;BME280_humidity;BME280_pressure;Samples;Min_cycle;Max_cycle;Signal;HPM_P1;HPM_P2
2022/11/04 00:01:30;;;;;;;3.38;1.80;;;;;;;14.05;65.09;100110.09;4999818;28;20050;-63
2022/11/04 00:03:57;;;;;;;3.17;2.10;;;;;;;14.05;64.97;100115.50;4998281;28;20047;-63
2022/11/04 00:06:26;;;;;;;2.75;1.58;;;;;;;14.04;64.94;100115.75;4999114;28;20058;-62
2022/11/04 00:08:57;;;;;;;2.63;1.73;;;;;;;14.04;64.94;100123.88;4997246;28;20046;-64
2022/11/04 00:14:14;;;;;;;2.55;1.60;;;;;;;14.02;64.82;100124.94;4998283;28;20050;-62
2022/11/04 00:19:28;;;;;;;3.50;1.60;;;;;;;14.00;64.68;100126.28;5004224;28;20510;-62
2022/11/04 00:30:12;;;;;;;2.88;1.77;;;;;;;14.00;64.68;100148.72;5078639;28;20090;-62
2022/11/04 00:35:25;;;;;;;3.63;1.77;;;;;;;13.98;64.53;100147.34;5029369;28;20063;-62
2022/11/04 00:37:52;;;;;;;1.90;1.58;;;;;;;13.96;64.51;100149.50;5082277;28;20486;-63
2022/11/04 00:40:21;;;;;;;2.95;1.70;;;;;;;13.95;64.13;100154.09;5069960;28;20128;-63
2022/11/04 00:42:49;;;;;;;2.80;1.35;;;;;;;13.94;64.66;100157.03;5075288;28;20049;-62
2022/11/04 00:45:17;;;;;;;4.10;1.75;;;;;;;13.91;64.59;100158.38;5079515;28;20068;-62
2022/11/04 00:47:44;;;;;;;2.85;1.65;;;;;;;13.92;64.47;100157.31;5070027;28;20056;-63
2022/11/04 00:50:12;;;;;;;4.57;1.80;;;;;;;13.90;64.49;100159.44;5080209;28;20052;-63
2022/11/04 00:52:40;;;;;;;2.35;2.05;;;;;;;13.90;64.21;100156.75;5067676;28;20104;-63
2022/11/04 00:55:09;;;;;;;3.20;1.58;;;;;;;13.89;64.28;100174.03;5080560;28;20045;-62
2022/11/04 00:57:38;;;;;;;2.42;1.42;;;;;;;13.88;64.43;100169.69;5081428;28;20056;-63
2022/11/04 01:00:07;;;;;;;3.42;1.70;;;;;;;13.86;64.51;100174.59;5077780;28;20070;-62
2022/11/04 01:02:34;;;;;;;5.00;1.80;;;;;;;13.86;64.29;100185.38;5080248;28;20374;-62
2022/11/04 01:05:02;;;;;;;4.90;2.30;;;;;;;13.85;64.48;100185.66;5075667;28;20124;-63
2022/11/04 01:07:30;;;;;;;3.10;1.90;;;;;;;13.84;64.12;100179.44;5080914;28;20067;-63
2022/11/04 01:09:58;;;;;;;3.60;2.25;;;;;;;13.84;64.48;100186.72;5081126;28;20580;-63
2022/11/04 01:12:26;;;;;;;3.13;2.00;;;;;;;13.84;64.32;100195.63;5080173;28;20390;-63
2022/11/04 01:14:55;;;;;;;2.85;1.92;;;;;;;13.82;64.60;100196.97;5080068;28;20128;-63
2022/11/04 01:17:23;;;;;;;3.95;2.08;;;;;;;13.81;64.58;100203.44;5073983;28;20128;-62
2022/11/04 01:19:51;;;;;;;3.08;1.52;;;;;;;13.81;64.30;100198.03;5070637;28;20065;-63
2022/11/04 01:22:18;;;;;;;3.05;1.85;;;;;;;13.81;64.44;100204.25;5083224;28;20071;-63
2022/11/04 01:24:46;;;;;;;3.50;2.10;;;;;;;13.80;64.13;100207.22;5081983;28;20053;-63
2022/11/04 01:27:14;;;;;;;6.38;2.10;;;;;;;13.80;64.04;100201.81;5064360;28;20055;-63
2022/11/04 01:29:41;;;;;;;5.47;2.17;;;;;;;13.79;64.46;100202.88;5064165;28;20124;-63
2022/11/04 01:32:11;;;;;;;5.93;2.33;;;;;;;13.78;64.13;100203.97;5079979;28;20040;-63
2022/11/04 01:34:38;;;;;;;4.03;1.98;;;;;;;13.78;64.24;100193.16;5081564;28;20053;-63
2022/11/04 01:37:10;;;;;;;5.43;2.15;;;;;;;13.74;64.17;100194.75;5082247;28;20076;-63
2022/11/04 01:39:38;;;;;;;4.22;1.50;;;;;;;13.76;64.26;100203.41;5069487;28;20057;-63
2022/11/04 01:42:05;;;;;;;4.70;1.92;;;;;;;13.73;64.27;100204.72;5075244;28;20156;-63
2022/11/04 01:44:49;;;;;;;2.55;1.52;;;;;;;13.72;64.38;100195.00;5065338;28;20049;-63
2022/11/04 01:47:21;;;;;;;5.32;1.60;;;;;;;13.71;64.03;100201.47;5072427;28;20048;-63
2022/11/04 01:49:54;;;;;;;3.67;1.70;;;;;;;13.70;64.20;100199.84;5079221;28;20066;-63
2022/11/04 01:52:26;;;;;;;2.75;1.70;;;;;;;13.70;63.85;100199.84;5068238;28;20053;-63
2022/11/04 01:54:57;;;;;;;5.82;2.00;;;;;;;13.67;63.93;100198.47;5074551;28;20041;-63
2022/11/04 01:57:33;;;;;;;2.97;2.17;;;;;;;13.67;63.79;100195.78;5078098;28;20044;-63
2022/11/04 02:00:04;;;;;;;4.07;1.83;;;;;;;13.67;64.12;100206.59;5076989;28;20044;-63
2022/11/04 02:02:34;;;;;;;3.92;1.70;;;;;;;13.67;64.12;100200.38;5079757;28;20299;-63
2022/11/04 02:05:02;;;;;;;3.15;1.73;;;;;;;13.65;63.91;100207.91;5076417;28;20051;-63
2022/11/04 02:07:30;;;;;;;6.22;1.70;;;;;;;13.65;64.27;100206.03;5077085;28;20048;-63
2022/11/04 02:09:58;;;;;;;3.15;1.40;;;;;;;13.64;64.22;100207.09;5073850;28;20045;-64
2022/11/04 02:15:11;;;;;;;3.25;1.23;;;;;;;13.62;63.73;100205.72;5068496;28;20058;-63
2022/11/04 02:17:58;;;;;;;4.63;1.98;;;;;;;13.61;64.06;100214.91;5070835;28;20044;-63
2022/11/04 02:20:36;;;;;;;3.35;1.50;;;;;;;13.61;63.72;100223.00;5074441;28;20045;-64
2022/11/04 02:23:48;;;;;;;4.65;1.45;;;;;;;13.59;64.08;100219.75;5074385;28;20052;-63
2022/11/04 02:26:51;;;;;;;4.18;1.60;;;;;;;13.59;63.96;100225.13;5078495;28;20140;-63
2022/11/04 02:29:52;;;;;;;4.03;1.42;;;;;;;13.57;63.66;100228.09;5067238;28;20041;-63
2022/11/04 02:32:28;;;;;;;5.75;1.30;;;;;;;13.57;63.49;100225.41;5080802;28;20063;-63
2022/11/04 02:35:03;;;;;;;1.83;1.20;;;;;;;13.56;63.73;100229.16;5078837;28;20147;-64
2022/11/04 02:37:40;;;;;;;4.65;1.38;;;;;;;13.54;63.87;100222.38;5076772;28;20108;-63
2022/11/04 02:40:18;;;;;;;5.10;1.52;;;;;;;13.54;63.68;100223.22;5067296;28;20041;-63
2022/11/04 02:42:55;;;;;;;4.00;1.08;;;;;;;13.51;63.89;100218.31;5073520;28;20469;-63
2022/11/04 02:45:30;;;;;;;3.35;1.33;;;;;;;13.48;63.77;100218.03;5082586;28;20051;-63
2022/11/04 02:48:05;;;;;;;4.97;1.55;;;;;;;13.50;63.54;100210.47;5082402;28;20048;-63
2022/11/04 02:50:39;;;;;;;4.60;1.50;;;;;;;13.47;63.73;100214.50;5077207;28;20051;-63
2022/11/04 02:53:14;;;;;;;3.50;1.20;;;;;;;13.48;63.34;100218.03;5080488;28;20041;-63
2022/11/04 02:55:46;;;;;;;4.03;1.25;;;;;;;13.47;63.31;100219.09;5084125;28;20055;-63
2022/11/04 02:58:19;;;;;;;2.85;1.30;;;;;;;13.46;63.46;100223.69;5082805;28;20063;-63
2022/11/04 03:00:51;;;;;;;4.10;2.17;;;;;;;13.45;63.35;100224.75;5079663;28;20049;-63
2022/11/04 03:03:24;;;;;;;4.72;1.35;;;;;;;13.43;63.44;100221.47;5075942;28;20056;-64
2022/11/04 03:05:54;;;;;;;5.75;1.60;;;;;;;13.43;63.18;100217.97;5080320;28;20050;-63
2022/11/04 03:08:27;;;;;;;2.60;1.00;;;;;;;13.43;63.61;100223.38;5082221;28;20045;-63
2022/11/04 03:11:01;;;;;;;3.22;1.40;;;;;;;13.42;63.55;100227.13;5082773;28;20116;-63
2022/11/04 03:13:36;;;;;;;3.72;1.35;;;;;;;13.40;63.16;100234.69;5081501;28;20056;-63
2022/11/04 03:16:10;;;;;;;3.30;1.48;;;;;;;13.39;63.60;100235.75;5081887;28;20461;-63
2022/11/04 03:18:47;;;;;;;2.45;1.42;;;;;;;13.35;63.24;100224.66;5077336;28;20319;-63
2022/11/04 03:21:17;;;;;;;2.97;1.02;;;;;;;13.36;63.42;100228.97;5080776;28;20037;-63
2022/11/04 03:23:45;;;;;;;6.38;1.50;;;;;;;13.35;63.24;100222.75;5068936;28;20404;-63
2022/11/04 03:26:17;;;;;;;5.07;1.50;;;;;;;13.35;63.31;100232.75;5083059;28;20056;-63
2022/11/04 03:28:55;;;;;;;5.50;2.38;;;;;;;13.32;63.15;100231.38;5076741;28;20171;-63
2022/11/04 03:31:29;;;;;;;5.50;1.67;;;;;;;13.32;63.09;100235.94;5075734;28;20063;-63
2022/11/04 03:33:57;;;;;;;5.05;1.42;;;;;;;13.31;63.43;100234.31;5083275;28;20551;-63
2022/11/04 03:36:25;;;;;;;4.57;1.70;;;;;;;13.30;63.07;100225.41;5084196;28;20050;-63
2022/11/04 03:38:53;;;;;;;4.00;1.60;;;;;;;13.30;63.41;100227.28;5078982;28;20398;-63
2022/11/04 03:41:29;;;;;;;2.80;1.52;;;;;;;13.29;63.24;100237.28;5081149;28;20519;-63
2022/11/04 03:43:57;;;;;;;2.40;1.47;;;;;;;13.28;62.97;100232.13;5081847;28;20068;-63
2022/11/04 03:46:26;;;;;;;3.65;1.33;;;;;;;13.26;62.87;100229.69;5066190;28;20381;-64
2022/11/04 03:48:55;;;;;;;4.88;1.58;;;;;;;13.26;63.38;100234.28;5079936;28;20054;-63
2022/11/04 03:51:23;;;;;;;5.38;1.65;;;;;;;13.25;63.16;100235.34;5082829;28;20091;-63
2022/11/04 03:53:51;;;;;;;3.60;1.50;;;;;;;13.25;63.21;100236.16;5083739;28;20082;-63
2022/11/04 03:56:39;;;;;;;5.55;1.92;;;;;;;13.24;63.30;100239.91;5073756;28;20051;-64
2022/11/04 03:59:21;;;;;;;3.35;1.60;;;;;;;13.23;63.16;100238.28;5080867;28;20048;-63
2022/11/04 04:01:55;;;;;;;3.28;1.63;;;;;;;13.22;62.82;100235.84;5078275;28;20059;-63
2022/11/04 04:04:29;;;;;;;4.15;1.75;;;;;;;13.19;62.81;100226.38;5067798;28;20052;-63
2022/11/04 04:07:04;;;;;;;2.42;1.27;;;;;;;13.19;62.73;100229.06;5080884;28;20040;-63
2022/11/04 04:09:39;;;;;;;4.28;1.70;;;;;;;13.17;63.28;100228.50;5072045;28;20048;-63
2022/11/04 04:12:14;;;;;;;3.30;1.90;;;;;;;13.17;62.78;100233.09;5077577;28;20504;-63
2022/11/04 04:14:46;;;;;;;3.42;1.45;;;;;;;13.15;63.13;100227.09;5081537;28;20056;-63
2022/11/04 04:17:20;;;;;;;2.25;1.30;;;;;;;13.08;63.13;100223.78;5079036;28;20058;-63
2022/11/04 04:19:54;;;;;;;4.30;1.80;;;;;;;13.13;63.02;100229.25;5081815;28;20560;-63
2022/11/04 04:22:25;;;;;;;2.65;1.23;;;;;;;13.13;63.13;100237.34;5083341;28;20044;-64
2022/11/04 04:27:42;;;;;;;3.95;1.42;;;;;;;13.11;63.07;100239.47;5064475;28;20063;-63
2022/11/04 04:30:13;;;;;;;3.65;1.50;;;;;;;13.10;62.57;100244.06;5077863;28;20045;-63
2022/11/04 04:32:44;;;;;;;5.45;2.13;;;;;;;13.10;62.69;100256.72;5078908;28;20054;-63
2022/11/04 04:46:18;;;;;;;3.08;1.10;;;;;;;13.04;62.66;100248.56;5080247;28;20048;-62
2022/11/04 04:48:47;;;;;;;5.32;1.73;;;;;;;13.03;62.82;100254.22;5074332;28;20576;-62
2022/11/04 04:51:16;;;;;;;8.70;1.70;;;;;;;12.99;62.86;100245.00;5076655;28;20462;-62
2022/11/04 04:53:43;;;;;;;5.25;1.77;;;;;;;13.02;62.63;100255.28;5082062;28;20048;-62
2022/11/04 04:56:11;;;;;;;6.18;1.70;;;;;;;13.01;63.05;100261.75;5079700;28;20055;-63
2022/11/04 04:58:39;;;;;;;6.90;2.42;;;;;;;13.00;62.69;100268.22;5071730;28;20793;-63
2022/11/04 05:01:07;;;;;;;5.32;1.65;;;;;;;12.98;62.67;100267.66;5076951;28;20382;-64
2022/11/04 05:03:35;;;;;;;7.05;2.05;;;;;;;12.97;62.97;100272.22;5078800;28;20067;-63
2022/11/04 05:06:11;;;;;;;4.30;1.50;;;;;;;12.96;62.96;100270.59;5080917;28;20058;-63
2022/11/04 05:08:39;;;;;;;6.50;1.55;;;;;;;12.96;62.83;100267.91;5082551;28;20048;-63
2022/11/04 05:11:07;;;;;;;6.25;1.50;;;;;;;12.95;62.90;100268.97;5074804;28;20045;-62
2022/11/04 05:13:35;;;;;;;5.13;1.80;;;;;;;12.88;62.87;100257.56;5081143;28;20432;-63
2022/11/04 05:16:04;;;;;;;3.92;1.30;;;;;;;12.93;62.44;100273.81;5071381;28;20041;-62
2022/11/04 05:18:33;;;;;;;5.35;2.10;;;;;;;12.87;62.77;100269.41;5072105;28;20050;-63
2022/11/04 05:21:03;;;;;;;7.38;1.83;;;;;;;12.93;62.64;100273.00;5080989;28;20162;-63
2022/11/04 05:23:32;;;;;;;4.68;2.47;;;;;;;12.92;62.79;100288.34;5081726;28;20071;-63
2022/11/04 05:26:00;;;;;;;4.30;1.48;;;;;;;12.91;62.64;100292.13;5076518;28;20049;-63
2022/11/04 05:28:28;;;;;;;6.43;1.90;;;;;;;12.89;62.59;100294.25;5081931;28;20394;-63
2022/11/04 05:30:55;;;;;;;3.55;1.35;;;;;;;12.90;62.79;100293.19;5076369;28;20037;-62
2022/11/04 05:33:23;;;;;;;5.38;1.60;;;;;;;12.90;62.55;100295.88;5079713;28;20131;-62
2022/11/04 05:35:51;;;;;;;5.30;1.83;;;;;;;12.91;62.57;100296.69;5080131;28;20052;-63
2022/11/04 05:38:19;;;;;;;3.00;1.40;;;;;;;12.91;62.77;100302.09;5082019;28;20048;-62
2022/11/04 05:40:48;;;;;;;7.95;2.00;;;;;;;12.88;62.56;100300.72;5068501;28;20059;-63
2022/11/04 05:43:17;;;;;;;7.18;2.25;;;;;;;12.88;62.74;100294.50;5078798;28;20505;-62
2022/11/04 05:45:46;;;;;;;3.70;1.40;;;;;;;12.86;62.76;100305.53;5077234;28;20048;-63
2022/11/04 05:48:13;;;;;;;4.07;1.40;;;;;;;12.87;62.70;100303.66;5074812;28;20049;-62
2022/11/04 05:50:42;;;;;;;3.50;1.55;;;;;;;12.85;62.91;100292.31;5068960;28;20053;-63
2022/11/04 05:53:09;;;;;;;5.93;1.73;;;;;;;12.85;62.72;100298.50;5063595;28;20059;-63
2022/11/04 05:55:38;;;;;;;4.13;1.63;;;;;;;12.83;62.79;100311.44;5082510;28;20048;-64
2022/11/04 05:58:07;;;;;;;5.40;1.55;;;;;;;12.84;62.65;100313.06;5073188;28;20056;-63
2022/11/04 06:00:35;;;;;;;7.60;2.13;;;;;;;12.83;62.79;100324.91;5080310;28;20036;-63
2022/11/04 06:03:03;;;;;;;4.47;1.52;;;;;;;12.83;62.85;100319.53;5078880;28;20052;-63
2022/11/04 06:05:31;;;;;;;6.20;1.75;;;;;;;12.81;62.79;100318.97;5083327;28;20048;-63
2022/11/04 06:07:59;;;;;;;5.22;1.60;;;;;;;12.81;62.95;100321.66;5078973;28;20055;-63
2022/11/04 06:10:26;;;;;;;4.25;1.42;;;;;;;12.80;62.88;100322.72;5076603;28;20074;-63
2022/11/04 06:12:54;;;;;;;6.13;1.52;;;;;;;12.80;62.81;100325.41;5084230;28;20143;-62
2022/11/04 06:15:23;;;;;;;2.65;1.55;;;;;;;12.79;62.76;100333.75;5079001;28;20048;-63
2022/11/04 06:17:51;;;;;;;8.60;2.28;;;;;;;12.77;62.70;100335.88;5080787;28;20048;-62
2022/11/04 06:20:19;;;;;;;6.57;1.70;;;;;;;12.73;62.61;100327.47;5083032;28;20048;-62
2022/11/04 06:22:46;;;;;;;5.75;2.05;;;;;;;12.73;62.64;100332.88;5081885;28;20060;-63
2022/11/04 06:25:14;;;;;;;8.15;1.95;;;;;;;12.71;62.49;100338.50;5069645;28;20045;-63
2022/11/04 06:27:42;;;;;;;4.70;1.48;;;;;;;12.71;62.80;100348.47;5074053;28;20055;-65
2022/11/04 06:30:11;;;;;;;4.20;1.50;;;;;;;12.69;62.55;100350.59;5073018;28;20150;-63
2022/11/04 06:32:40;;;;;;;8.52;1.45;;;;;;;12.70;62.44;100344.97;5078234;28;20045;-63
2022/11/04 06:35:08;;;;;;;8.88;2.55;;;;;;;12.68;62.52;100346.28;5070321;28;20105;-63
2022/11/04 06:37:37;;;;;;;4.88;1.98;;;;;;;12.67;62.64;100350.84;5076891;28;20053;-63
2022/11/04 06:40:05;;;;;;;5.95;1.90;;;;;;;12.68;62.63;100351.66;5082661;28;20040;-63
2022/11/04 06:42:33;;;;;;;6.70;1.67;;;;;;;12.68;62.64;100354.34;5079456;28;20051;-63
2022/11/04 06:45:01;;;;;;;3.50;1.30;;;;;;;12.66;62.39;100360.00;5080961;28;20044;-63
2022/11/04 06:47:29;;;;;;;7.43;2.28;;;;;;;12.66;62.70;100364.56;5071660;28;20065;-62
2022/11/04 06:50:00;;;;;;;6.90;1.95;;;;;;;12.65;62.71;100366.47;4722489;28;10000325;-62
2022/11/04 06:52:28;;;;;;;4.53;2.03;;;;;;;12.66;62.40;100369.97;5077704;28;20047;-62
2022/11/04 06:54:56;;;;;;;4.68;1.95;;;;;;;12.63;62.48;100368.59;5077457;28;20108;-61
2022/11/04 06:57:24;;;;;;;5.70;1.77;;;;;;;12.64;62.40;100366.69;5081564;28;20048;-62
2022/11/04 06:59:52;;;;;;;3.17;1.20;;;;;;;12.62;62.56;100372.34;5079960;28;20059;-63
2022/11/04 07:02:20;;;;;;;4.00;2.53;;;;;;;12.61;62.81;100380.69;5081181;28;20044;-64
2022/11/04 07:04:48;;;;;;;9.15;2.17;;;;;;;12.58;62.50;100360.41;5073682;28;20064;-63
2022/11/04 07:07:17;;;;;;;6.57;1.98;;;;;;;12.60;62.86;100365.56;5081496;28;20053;-61
2022/11/04 07:09:45;;;;;;;4.03;1.60;;;;;;;12.60;63.08;100379.84;5070570;28;20048;-63
2022/11/04 07:12:12;;;;;;;7.43;2.00;;;;;;;12.54;63.07;100380.84;5075207;28;20045;-62
2022/11/04 07:14:40;;;;;;;5.43;2.05;;;;;;;12.51;63.70;100384.03;5075888;28;20113;-61
2022/11/04 07:17:08;;;;;;;5.20;2.00;;;;;;;12.53;63.18;100386.47;5062805;28;20049;-61
2022/11/04 07:19:36;;;;;;;8.68;2.30;;;;;;;12.54;63.46;100382.72;5079557;28;20083;-60
2022/11/04 07:22:03;;;;;;;8.10;1.90;;;;;;;12.55;63.58;100392.44;5081803;28;20049;-61
2022/11/04 07:24:32;;;;;;;4.75;1.60;;;;;;;12.55;63.52;100395.13;5080723;28;20079;-61
2022/11/04 07:27:00;;;;;;;4.68;1.90;;;;;;;12.54;63.26;100390.81;5073295;28;20048;-61
2022/11/04 07:29:33;;;;;;;3.70;1.63;;;;;;;12.54;63.49;100388.13;5080405;28;20090;-61
2022/11/04 07:32:01;;;;;;;8.32;1.98;;;;;;;12.53;63.29;100398.06;5080169;28;20040;-62
2022/11/04 07:34:29;;;;;;;7.85;1.90;;;;;;;12.55;63.32;100401.34;5073962;28;20108;-61
2022/11/04 07:36:56;;;;;;;5.00;1.92;;;;;;;12.55;63.18;100403.22;5084992;28;20072;-61
2022/11/04 07:39:24;;;;;;;11.57;2.08;;;;;;;12.55;63.52;100405.91;5084243;28;20489;-62
2022/11/04 07:41:53;;;;;;;6.60;1.85;;;;;;;12.56;63.47;100411.06;5082530;28;20050;-62
2022/11/04 07:44:26;;;;;;;5.03;1.85;;;;;;;12.59;63.44;100417.84;5082309;28;20044;-63
2022/11/04 07:46:54;;;;;;;4.55;1.77;;;;;;;12.59;63.56;100415.16;5083032;28;20055;-66
2022/11/04 07:49:22;;;;;;;6.72;2.47;;;;;;;12.48;63.88;100403.38;5082913;28;20052;-62
2022/11/04 07:51:49;;;;;;;6.47;2.15;;;;;;;12.56;63.73;100421.84;5084150;28;20059;-66
2022/11/04 07:54:17;;;;;;;4.47;1.58;;;;;;;12.58;63.37;100432.38;5083340;28;20055;-64
2022/11/04 07:56:45;;;;;;;7.63;2.35;;;;;;;12.53;64.43;100435.00;5081733;28;20421;-61
2022/11/04 07:59:14;;;;;;;7.95;2.50;;;;;;;12.50;64.01;100432.78;5081035;28;20044;-61
2022/11/04 08:01:42;;;;;;;6.72;1.90;;;;;;;12.52;64.05;100436.88;5082756;28;20048;-61
2022/11/04 08:04:10;;;;;;;8.20;2.13;;;;;;;12.53;64.31;100437.69;5083287;28;20059;-61
2022/11/04 08:06:38;;;;;;;3.17;1.58;;;;;;;12.53;63.88;100438.50;5082689;28;20075;-61
2022/11/04 08:09:05;;;;;;;5.95;2.33;;;;;;;12.53;63.89;100440.38;5083811;28;20427;-61
2022/11/04 08:11:33;;;;;;;10.82;2.90;;;;;;;12.53;63.93;100435.81;5083413;28;20044;-61
2022/11/04 08:14:03;;;;;;;5.88;2.10;;;;;;;12.54;63.90;100448.22;5083782;28;20044;-61
2022/11/04 08:16:32;;;;;;;8.05;1.92;;;;;;;12.54;64.14;100447.41;5082539;28;20036;-61
2022/11/04 08:19:01;;;;;;;4.00;1.55;;;;;;;12.53;63.86;100446.59;5080874;28;20044;-62
2022/11/04 08:21:30;;;;;;;6.10;2.72;;;;;;;12.52;63.85;100446.84;5082148;28;20045;-61
2022/11/04 08:23:58;;;;;;;5.63;2.20;;;;;;;12.55;63.85;100454.44;5083128;28;20108;-61
2022/11/04 08:26:25;;;;;;;6.82;1.70;;;;;;;12.53;64.16;100460.06;5082739;28;20044;-62
2022/11/04 08:28:54;;;;;;;4.28;1.80;;;;;;;12.54;63.81;100463.59;5083325;28;20049;-60
2022/11/04 08:31:24;;;;;;;5.85;1.80;;;;;;;12.49;64.57;100467.00;5077735;28;20047;-65
2022/11/04 08:33:54;;;;;;;8.40;2.63;;;;;;;12.48;65.05;100469.97;5081342;28;20194;-62
2022/11/04 08:36:25;;;;;;;8.65;1.98;;;;;;;12.45;64.92;100478.53;5081109;28;20048;-62
2022/11/04 08:38:54;;;;;;;8.15;2.63;;;;;;;12.43;64.73;100480.66;5081744;28;20098;-62
2022/11/04 08:41:24;;;;;;;5.55;1.80;;;;;;;12.43;64.83;100477.94;5082344;28;20076;-62
2022/11/04 08:43:52;;;;;;;4.00;1.50;;;;;;;12.43;64.78;100475.25;5083003;28;20136;-62
2022/11/04 08:46:20;;;;;;;6.15;2.00;;;;;;;12.45;64.81;100470.44;4717562;28;9999917;-62
2022/11/04 08:48:48;;;;;;;7.90;1.92;;;;;;;12.45;64.89;100476.66;5079273;28;20124;-63
2022/11/04 08:51:19;;;;;;;7.40;2.00;;;;;;;12.46;64.67;100482.84;5078155;28;20052;-62
2022/11/04 08:53:48;;;;;;;8.77;2.03;;;;;;;12.56;64.68;100483.84;5073262;28;20063;-62
2022/11/04 08:56:18;;;;;;;5.05;1.70;;;;;;;12.70;63.86;100487.03;5075848;28;20056;-62
2022/11/04 08:58:47;;;;;;;5.63;2.00;;;;;;;12.83;63.60;100486.72;5068245;28;20059;-63
2022/11/04 09:01:15;;;;;;;9.90;2.83;;;;;;;12.99;63.25;100488.59;5068956;28;20058;-62
2022/11/04 09:03:43;;;;;;;5.82;1.70;;;;;;;13.14;62.87;100497.97;5059436;28;20044;-62
2022/11/04 09:06:13;;;;;;;3.80;1.58;;;;;;;13.29;62.08;100501.75;5065510;28;20301;-61
2022/11/04 09:08:43;;;;;;;5.97;1.88;;;;;;;13.47;62.16;100505.25;5072546;28;20048;-61
2022/11/04 09:11:13;;;;;;;7.68;1.90;;;;;;;13.50;62.00;100507.44;5067774;28;20049;-61
2022/11/04 09:13:41;;;;;;;6.63;1.70;;;;;;;13.49;61.45;100509.31;5077485;28;20155;-61
2022/11/04 09:16:10;;;;;;;4.47;1.83;;;;;;;13.44;61.82;100514.66;5075731;28;20135;-61
2022/11/04 09:18:38;;;;;;;8.88;2.28;;;;;;;13.39;62.31;100519.16;5069604;28;20051;-61
2022/11/04 09:21:08;;;;;;;5.13;1.70;;;;;;;13.27;62.05;100511.16;5071346;28;20055;-60
2022/11/04 09:23:36;;;;;;;6.25;1.73;;;;;;;13.25;62.56;100516.81;5079536;28;20079;-60
2022/11/04 09:26:08;;;;;;;3.65;1.45;;;;;;;13.20;63.23;100513.22;5079001;28;20058;-60
2022/11/04 09:28:36;;;;;;;8.88;1.80;;;;;;;13.17;63.09;100524.50;5079569;28;20360;-60
2022/11/04 09:31:06;;;;;;;2.53;1.40;;;;;;;13.16;63.37;100528.25;5078335;28;20056;-60
2022/11/04 09:33:34;;;;;;;4.97;1.50;;;;;;;13.13;63.28;100534.94;5078443;28;20045;-60
2022/11/04 09:36:02;;;;;;;5.15;2.00;;;;;;;13.11;63.29;100542.47;5068073;28;20370;-60
2022/11/04 09:38:30;;;;;;;8.02;1.83;;;;;;;13.09;63.38;100543.78;5083571;28;20050;-61
2022/11/04 09:40:59;;;;;;;5.50;1.98;;;;;;;13.07;63.50;100549.41;5084928;28;20053;-61
2022/11/04 09:43:49;;;;;;;4.28;1.67;;;;;;;13.03;64.01;100554.47;5085835;28;20419;-61
2022/11/04 09:46:17;;;;;;;4.93;1.65;;;;;;;13.04;63.58;100558.81;5085227;28;20104;-60
2022/11/04 09:48:48;;;;;;;5.63;2.42;;;;;;;13.13;64.05;100555.72;5086277;28;20430;-62
2022/11/04 09:51:18;;;;;;;3.65;1.58;;;;;;;13.25;63.62;100567.28;5085151;28;20048;-63
2022/11/04 09:54:12;;;;;;;3.83;1.75;;;;;;;13.42;62.95;100568.06;5083154;28;20041;-62
2022/11/04 09:56:44;;;;;;;7.78;2.10;;;;;;;13.56;62.99;100566.66;5078316;28;20052;-63
2022/11/04 09:59:18;;;;;;;6.05;2.30;;;;;;;13.71;62.21;100565.25;5073910;28;20045;-64
2022/11/04 10:01:55;;;;;;;5.75;2.03;;;;;;;13.88;62.13;100557.88;4731880;28;10000918;-64
2022/11/04 10:04:33;;;;;;;8.07;2.20;;;;;;;14.05;61.12;100565.94;5077988;28;20055;-65
2022/11/04 10:07:14;;;;;;;8.20;1.83;;;;;;;14.18;60.72;100571.75;5082012;28;20040;-63
2022/11/04 10:09:55;;;;;;;7.20;1.70;;;;;;;14.36;60.10;100570.63;5082107;28;20689;-63
2022/11/04 10:12:40;;;;;;;5.47;2.20;;;;;;;14.47;59.86;100571.56;5064903;28;20051;-63
2022/11/04 10:15:28;;;;;;;4.88;2.22;;;;;;;14.56;59.66;100578.16;5070039;28;20058;-63
2022/11/04 10:18:06;;;;;;;6.65;1.88;;;;;;;14.52;59.79;100577.03;5082520;28;20076;-64
2022/11/04 10:20:49;;;;;;;4.88;2.05;;;;;;;14.39;60.39;100574.69;5082417;28;20466;-64
2022/11/04 10:23:22;;;;;;;3.90;1.90;;;;;;;14.23;60.58;100579.13;5081255;28;20050;-63
2022/11/04 10:26:01;;;;;;;4.30;1.90;;;;;;;14.05;61.31;100588.34;5082775;28;20473;-63
2022/11/04 10:28:34;;;;;;;6.45;1.83;;;;;;;13.93;62.10;100590.38;5083174;28;20188;-63
2022/11/04 10:31:05;;;;;;;7.88;1.95;;;;;;;13.82;62.45;100602.13;5085659;28;20086;-64
2022/11/04 10:33:38;;;;;;;9.25;2.97;;;;;;;13.75;62.83;100602.31;5084105;28;20052;-65
2022/11/04 10:36:08;;;;;;;6.25;2.20;;;;;;;13.68;62.90;100599.78;5085654;28;20440;-63
2022/11/04 10:38:39;;;;;;;5.68;2.20;;;;;;;13.64;63.23;100612.16;5085193;28;20060;-63
2022/11/04 10:41:19;;;;;;;6.18;2.08;;;;;;;13.59;63.34;100613.94;5085541;28;20044;-63
2022/11/04 10:43:48;;;;;;;6.60;2.55;;;;;;;13.46;63.47;100600.78;5075824;28;20053;-63
2022/11/04 10:46:30;;;;;;;7.18;2.78;;;;;;;13.49;63.88;100613.78;5069232;28;20429;-63
2022/11/04 10:49:20;;;;;;;5.55;2.00;;;;;;;13.45;63.91;100618.06;5080430;28;20044;-62
2022/11/04 10:51:48;;;;;;;6.20;1.90;;;;;;;13.40;63.58;100613.38;5083220;28;20404;-61
2022/11/04 10:54:16;;;;;;;9.90;2.78;;;;;;;13.37;64.15;100613.88;5081215;28;20170;-63
2022/11/04 10:56:49;;;;;;;8.18;3.25;;;;;;;13.35;64.62;100616.00;5084273;28;20044;-65
2022/11/04 10:59:23;;;;;;;9.40;2.58;;;;;;;13.32;64.61;100609.22;5077229;28;20118;-62
2022/11/04 11:01:53;;;;;;;10.35;2.78;;;;;;;13.31;64.36;100617.56;5072628;28;20049;-63
2022/11/04 11:04:27;;;;;;;14.18;3.92;;;;;;;13.28;64.85;100612.66;5069857;28;20643;-63
2022/11/04 11:06:58;;;;;;;12.00;3.28;;;;;;;13.24;64.69;100612.34;5084589;28;20076;-63
2022/11/04 11:09:28;;;;;;;14.60;2.92;;;;;;;13.23;64.48;100605.28;5084986;28;20240;-63
2022/11/04 11:12:00;;;;;;;8.15;2.58;;;;;;;13.23;65.17;100601.78;5069035;28;20138;-64
2022/11/04 11:14:33;;;;;;;10.10;2.97;;;;;;;13.22;64.82;100611.75;5064643;28;20045;-63
2022/11/04 11:17:22;;;;;;;7.72;2.75;;;;;;;13.22;65.30;100613.63;5084483;28;20152;-63
2022/11/04 11:19:55;;;;;;;8.80;3.30;;;;;;;13.21;65.05;100614.69;5074993;28;20056;-63
2022/11/04 11:22:41;;;;;;;11.13;3.47;;;;;;;13.20;64.80;100623.84;5084384;28;20040;-62
2022/11/04 11:25:28;;;;;;;14.52;4.07;;;;;;;13.19;65.21;100628.44;5064924;28;20048;-62
2022/11/04 11:27:58;;;;;;;5.63;2.80;;;;;;;13.18;65.00;100624.09;5065499;28;20490;-63
2022/11/04 11:30:30;;;;;;;9.93;4.00;;;;;;;13.19;65.07;100623.03;5064698;28;20048;-65
2022/11/04 11:33:03;;;;;;;10.63;3.83;;;;;;;13.18;65.22;100624.09;4722393;28;10000319;-62
2022/11/04 11:35:40;;;;;;;11.40;3.38;;;;;;;13.17;65.14;100621.66;5069655;28;20219;-63
2022/11/04 11:38:17;;;;;;;11.18;4.13;;;;;;;13.14;65.24;100617.53;5080424;28;20076;-63
2022/11/04 11:40:47;;;;;;;12.32;4.40;;;;;;;13.15;65.65;100621.84;5075647;28;20044;-62
2022/11/04 11:43:38;;;;;;;9.80;4.20;;;;;;;13.12;65.31;100619.66;5067168;28;20055;-64
2022/11/04 11:46:06;;;;;;;10.45;4.20;;;;;;;13.11;65.33;100626.09;5076999;28;20472;-63
2022/11/04 11:48:39;;;;;;;12.75;6.22;;;;;;;13.10;65.54;100619.06;5078743;28;20048;-63
2022/11/04 11:51:07;;;;;;;18.65;4.90;;;;;;;13.15;65.28;100629.97;5078573;28;20056;-64
2022/11/04 11:53:38;;;;;;;12.50;4.10;;;;;;;13.18;65.28;100636.78;5072943;28;20055;-63
2022/11/04 11:56:18;;;;;;;14.95;4.38;;;;;;;13.23;64.94;100644.97;5078705;28;20055;-64
2022/11/04 11:58:54;;;;;;;8.13;3.88;;;;;;;13.25;65.13;100646.34;5075681;28;20437;-67
2022/11/04 12:01:49;;;;;;;12.55;4.35;;;;;;;13.28;65.01;100642.34;5077685;28;20071;-65
2022/11/04 12:04:20;;;;;;;13.15;3.90;;;;;;;13.30;65.06;100646.44;5068717;28;21468;-63
2022/11/04 12:07:16;;;;;;;12.02;3.83;;;;;;;13.32;64.98;100641.63;5069790;28;20065;-64
2022/11/04 12:10:15;;;;;;;13.45;4.68;;;;;;;13.31;64.68;100648.06;5077781;28;20053;-63
2022/11/04 12:13:14;;;;;;;14.02;4.28;;;;;;;13.30;64.25;100648.31;5067759;28;20061;-64
2022/11/04 12:16:13;;;;;;;10.93;3.92;;;;;;;13.31;64.15;100658.88;5076369;28;20052;-63
2022/11/04 12:18:59;;;;;;;9.15;3.72;;;;;;;13.31;64.37;100663.44;5064956;28;20048;-62